Página principal
METAR-TAF:

METAR-TAF

Aeroportos :

Aeroporto Internacional de Florianópolis

Florianópolis, Santa Catarina, Brasil

latitude: 27-40S, longitude: 048-33W, altura: 5 m

Observação actual do tempo

O boletim foi feito há 24 minutos, às 06:00 UTC
Vento 8 kt de noroeste
Temperatura 14°C
Humidade 82%
Pressão 1019 hPa
Visibilidade 10 km ou mais
sem nuvens abaixo de 1500 metros e sem cumulonimbus

METAR: SBFL 220600Z 31008KT CAVOK 14/11 Q1019

Hora: 03:24 (06:24 UTC)

Previsão

O boletim foi feito há 3 horas e 24 minutos, às 03:00 UTC
Previsão válida de 22 às 06 UTC a 23 às 06 UTC
Vento 5 kt de oeste
Visibilidade 10 km ou mais
sem nuvens abaixo de 1500 metros e sem cumulonimbus
Tornando-se
de 22 às 14 UTC a 22 às 16 UTC
Vento 10 kt de sul
Tornando-se
de 22 às 22 UTC a 22 às 24 UTC
Visibilidade 10 km ou mais
Nuvens dispersasa uma altura de 3000 ft

TAF: SBFL 220300Z 2206/2306 28005KT CAVOK TN12/2209Z TX22/2218Z BECMG 2214/2216 18010KT BECMG 2222/2224 9999 SCT030 RMK PDJ

Observações e previsões do tempo de mais de 4000 aeroportos (mensagens METAR e TAF).

As estações disponíveis são os pontos amarelos e vermelhos sobre o mapa.

Mova o rato sobre o mapa para ver o nome da estação.

Depois clique no ponto para visualizar as observações e previsões meteorológicas.

Para alterar o mapa : clique nos botões verdes com uma cruz preta para aumentar o zoom; no botão verde com uma pitada de zoom; ou nas setas verdes para mapas adjacentes.


METAR-TAF: